Adams, ND

10:36 AM CDT on September 17, 2014 (GMT -0500)
Hoople nd | Change Station
CLOSE
Current Station
Personal Weather Station
Location: Hoople, ND
Elevation: 870 ft
Nearby Weather Stations

Elev 870 ft 48.52 °N, 97.62 °W | Updated 14 minutes ago

Partly Cloudy
Partly Cloudy
45.9 °F
Feels Like 40 °F
N
12.0
Wind Variable Wind from North
Gusts 19.0 mph

Today
High -- | Low -- °F
--% Chance of Precip.
Yesterday
High -- | Low -- °F
Precip. -- in
7:12 AM 7:40 PM
Waning Crescent, 35% visible
Pressure 30.02 in
Visibility 7.0 miles
Clouds Overcast 200 ft
Windchill 40 °F
Dew Point 44 °F
Humidity 94%
Rainfall 0.00 in
Snow Depth Not available.
UV 1 out of 12
Pollen 3.30 out of 12
Air Quality Not available.
Flu Activity Not available.
METAR KD55 171515Z AUTO 04008KT 7SM OVC002 08/07 A3002 RMK AO2

More Conditions Fewer Conditions

Pressure 30.02 in
Visibility 7.0 miles
Clouds Overcast 200 ft
Windchill 40 °F
Dew Point 44 °F
Humidity 94%
Rainfall 0.00 in
Snow Depth Not available.
UV 1 out of 12
Pollen 3.30 out of 12
Air Quality Not available.
Flu Activity Not available.
METAR KD55 171515Z AUTO 04008KT 7SM OVC002 08/07 A3002 RMK AO2

More Conditions Fewer Conditions

10-Day Weather Forecast

Almanac

Astronomy

Sep. 17, 2014 Rise Set
Actual Time 7:12 AM CDT 7:40 PM CDT
Civil Twilight 6:40 AM CDT 8:12 PM CDT
Nautical Twilight 6:03 AM CDT 8:49 PM CDT
Astronomical Twilight 5:24 AM CDT 9:27 PM CDT
Moon 12:53 AM CDT 4:10 PM CDT
Length of Visible Light 13h 31m
Length of Day
12h 28m
Tomorrow will be 3m 30s shorter.
Waning Crescent, 35% of the Moon is Illuminated
Today
Waning Crescent
Sep 24
New
Oct 1
First Quarter
Oct 8
Full
Oct 15
Last Quarter

Today's Extremes

State Highs State Lows

Community

WunderPhotos

Upload Photos

1,754,068 photos uploaded!

WunderBlogs® & News

Nearby

Snow Depth

Station Depth Elevation
No new snow has been reported.

Earthquake Activity

City Distance Mag. Time & Date
No recent earthquake activity has been reported nearby.
Minimum magnitude displayed is 2.5.

Coastal Water Temperatures

Place Temperature
No Stations Reporting

Nearby Weather Stations